This is the latest recevied weather packets stored in our database for station/object K7GFH-13. If no packets are shown the sender has not sent any weather packets the latest 10 day(s).
| Time | Temp. | Humidity | Pressure | Rain* | Wind** | Luminosity | Snow |
|---|---|---|---|---|---|---|---|
| 1777562794 | 12.78° C | 68% | 1021 hPa | 0 mm | - | 235 W/m² | - |
| 1777561894 | 13.33° C | 67% | 1020.9 hPa | 0 mm | - | 167 W/m² | - |
| 1777560992 | 13.33° C | 61% | 1021.1 hPa | 0 mm | - | 132 W/m² | - |
| 1777560089 | 12.78° C | 62% | 1021 hPa | 0 mm | - | 143 W/m² | - |
| 1777559185 | 12.78° C | 59% | 1020.7 hPa | 0 mm | - | 100 W/m² | - |
| 1777558282 | 11.67° C | 62% | 1020.6 hPa | 0 mm | - | 71 W/m² | - |
| 1777557378 | 11.67° C | 63% | 1020.5 hPa | 0 mm | - | 52 W/m² | - |
| 1777556479 | 10.56° C | 65% | 1020.5 hPa | 0 mm | - | 35 W/m² | - |
| 1777555576 | 10° C | 66% | 1020.3 hPa | 0 mm | - | 22 W/m² | - |
| 1777554672 | 10° C | 65% | 1020.5 hPa | 0 mm | - | 10 W/m² | - |
| 1777553769 | 10° C | 64% | 1020.6 hPa | 0 mm | - | 2 W/m² | - |
| 1777552868 | 10° C | 66% | 1020.6 hPa | 0 mm | - | 0 W/m² | - |
| 1777551962 | 9.44° C | 69% | 1021.1 hPa | 0 mm | - | 0 W/m² | - |
| 1777551059 | 8.33° C | 72% | 1021 hPa | 0 mm | - | 0 W/m² | - |
| 1777550155 | 8.33° C | 75% | 1021.3 hPa | 0 mm | - | 0 W/m² | - |
| 1777549255 | 8.33° C | 73% | 1021.3 hPa | 0 mm | - | 0 W/m² | - |
| 1777548351 | 7.22° C | 79% | 1021.3 hPa | 0 mm | - | 0 W/m² | - |
| 1777547446 | 7.78° C | 78% | 1021.4 hPa | 0 mm | - | 0 W/m² | - |
| 1777546543 | 7.78° C | 78% | 1021.3 hPa | 0 mm | - | 0 W/m² | - |
| 1777545639 | 7.78° C | 78% | 1021.4 hPa | 0 mm | - | 0 W/m² | - |
| 1777544736 | 10° C | 68% | 1021.1 hPa | 0 mm | - | 0 W/m² | - |
| 1777543832 | 9.44° C | 69% | 1021.2 hPa | 0 mm | - | 0 W/m² | - |
| 1777542932 | 10° C | 69% | 1021.2 hPa | 0 mm | - | 0 W/m² | - |
| 1777542027 | 10° C | 67% | 1021.2 hPa | 0 mm | - | 0 W/m² | - |
| 1777541123 | 10.56° C | 67% | 1021.3 hPa | 0 mm | - | 0 W/m² | - |
* Rain latest hour (hover to see other rain measurements)
** Current wind speed in m/s (hover to see current wind gust speed)